sensor_id;sensor_type;location;lat;lon;timestamp;P1;durP1;ratioP1;P2;durP2;ratioP2
18808;SDS011;9532;54.322;10.116;2022-11-14T00:00:39;4.40;;;3.40;;
18808;SDS011;9532;54.322;10.116;2022-11-14T00:03:08;6.47;;;3.70;;
18808;SDS011;9532;54.322;10.116;2022-11-14T00:05:40;6.17;;;3.67;;
18808;SDS011;9532;54.322;10.116;2022-11-14T00:08:13;6.93;;;3.60;;
18808;SDS011;9532;54.322;10.116;2022-11-14T00:10:42;5.63;;;3.37;;
18808;SDS011;9532;54.322;10.116;2022-11-14T00:13:11;4.87;;;3.50;;
18808;SDS011;9532;54.322;10.116;2022-11-14T00:15:38;5.97;;;3.50;;
18808;SDS011;9532;54.322;10.116;2022-11-14T00:18:06;5.80;;;3.63;;
18808;SDS011;9532;54.322;10.116;2022-11-14T00:20:34;4.43;;;3.47;;
18808;SDS011;9532;54.322;10.116;2022-11-14T00:23:02;4.73;;;3.50;;
18808;SDS011;9532;54.322;10.116;2022-11-14T00:25:31;6.87;;;3.50;;
18808;SDS011;9532;54.322;10.116;2022-11-14T00:27:59;5.23;;;3.50;;
18808;SDS011;9532;54.322;10.116;2022-11-14T00:30:26;4.83;;;3.60;;
18808;SDS011;9532;54.322;10.116;2022-11-14T00:32:53;5.87;;;3.70;;
18808;SDS011;9532;54.322;10.116;2022-11-14T00:35:21;5.20;;;3.60;;
18808;SDS011;9532;54.322;10.116;2022-11-14T00:37:48;5.20;;;3.83;;
18808;SDS011;9532;54.322;10.116;2022-11-14T00:40:16;5.07;;;3.80;;
18808;SDS011;9532;54.322;10.116;2022-11-14T00:42:45;6.87;;;3.63;;
18808;SDS011;9532;54.322;10.116;2022-11-14T00:45:12;5.97;;;4.00;;
18808;SDS011;9532;54.322;10.116;2022-11-14T00:47:40;6.30;;;3.63;;
18808;SDS011;9532;54.322;10.116;2022-11-14T00:50:08;5.23;;;3.80;;
18808;SDS011;9532;54.322;10.116;2022-11-14T00:52:35;5.40;;;3.67;;
18808;SDS011;9532;54.322;10.116;2022-11-14T00:55:03;8.47;;;3.90;;
18808;SDS011;9532;54.322;10.116;2022-11-14T00:57:31;4.73;;;3.53;;
18808;SDS011;9532;54.322;10.116;2022-11-14T01:00:00;5.37;;;3.90;;
18808;SDS011;9532;54.322;10.116;2022-11-14T01:02:28;4.70;;;3.70;;
18808;SDS011;9532;54.322;10.116;2022-11-14T01:04:55;5.27;;;3.87;;
18808;SDS011;9532;54.322;10.116;2022-11-14T01:07:22;6.53;;;3.73;;
18808;SDS011;9532;54.322;10.116;2022-11-14T01:09:50;5.40;;;4.03;;
18808;SDS011;9532;54.322;10.116;2022-11-14T01:12:17;5.63;;;3.50;;
18808;SDS011;9532;54.322;10.116;2022-11-14T01:14:44;5.50;;;4.07;;
18808;SDS011;9532;54.322;10.116;2022-11-14T01:17:14;5.47;;;3.87;;
18808;SDS011;9532;54.322;10.116;2022-11-14T01:19:40;4.93;;;4.13;;
18808;SDS011;9532;54.322;10.116;2022-11-14T01:22:07;5.57;;;4.00;;
18808;SDS011;9532;54.322;10.116;2022-11-14T01:24:35;6.00;;;4.10;;
18808;SDS011;9532;54.322;10.116;2022-11-14T01:27:02;6.30;;;4.60;;
18808;SDS011;9532;54.322;10.116;2022-11-14T01:29:29;5.80;;;4.07;;
18808;SDS011;9532;54.322;10.116;2022-11-14T01:31:57;4.20;;;3.50;;
18808;SDS011;9532;54.322;10.116;2022-11-14T01:34:25;6.87;;;3.90;;
18808;SDS011;9532;54.322;10.116;2022-11-14T01:36:53;5.17;;;3.90;;
18808;SDS011;9532;54.322;10.116;2022-11-14T01:39:20;5.03;;;3.90;;
18808;SDS011;9532;54.322;10.116;2022-11-14T01:41:48;4.50;;;3.63;;
18808;SDS011;9532;54.322;10.116;2022-11-14T01:44:16;6.93;;;4.17;;
18808;SDS011;9532;54.322;10.116;2022-11-14T01:47:03;5.37;;;4.00;;
18808;SDS011;9532;54.322;10.116;2022-11-14T01:49:34;5.50;;;3.90;;
18808;SDS011;9532;54.322;10.116;2022-11-14T01:52:03;5.10;;;3.83;;
18808;SDS011;9532;54.322;10.116;2022-11-14T01:54:35;4.53;;;3.83;;
18808;SDS011;9532;54.322;10.116;2022-11-14T01:57:06;5.47;;;3.87;;
18808;SDS011;9532;54.322;10.116;2022-11-14T01:59:35;7.70;;;4.00;;
18808;SDS011;9532;54.322;10.116;2022-11-14T02:02:09;5.03;;;3.90;;
18808;SDS011;9532;54.322;10.116;2022-11-14T02:04:43;4.33;;;3.50;;
18808;SDS011;9532;54.322;10.116;2022-11-14T02:07:13;5.23;;;3.90;;
18808;SDS011;9532;54.322;10.116;2022-11-14T02:09:41;5.93;;;4.10;;
18808;SDS011;9532;54.322;10.116;2022-11-14T02:12:12;4.90;;;4.00;;
18808;SDS011;9532;54.322;10.116;2022-11-14T02:14:42;4.17;;;3.53;;
18808;SDS011;9532;54.322;10.116;2022-11-14T02:17:11;4.80;;;3.70;;
18808;SDS011;9532;54.322;10.116;2022-11-14T02:19:43;6.00;;;3.80;;
18808;SDS011;9532;54.322;10.116;2022-11-14T02:22:14;5.10;;;3.63;;
18808;SDS011;9532;54.322;10.116;2022-11-14T02:24:41;5.23;;;4.20;;
18808;SDS011;9532;54.322;10.116;2022-11-14T02:27:09;6.10;;;3.70;;
18808;SDS011;9532;54.322;10.116;2022-11-14T02:29:37;6.33;;;4.10;;
18808;SDS011;9532;54.322;10.116;2022-11-14T02:32:05;5.80;;;4.00;;
18808;SDS011;9532;54.322;10.116;2022-11-14T02:34:32;5.77;;;4.00;;
18808;SDS011;9532;54.322;10.116;2022-11-14T02:36:59;4.63;;;3.80;;
18808;SDS011;9532;54.322;10.116;2022-11-14T02:39:28;5.53;;;3.87;;
18808;SDS011;9532;54.322;10.116;2022-11-14T02:41:56;4.40;;;3.67;;
18808;SDS011;9532;54.322;10.116;2022-11-14T02:44:23;4.13;;;3.57;;
18808;SDS011;9532;54.322;10.116;2022-11-14T02:46:50;4.80;;;3.87;;
18808;SDS011;9532;54.322;10.116;2022-11-14T02:49:17;5.40;;;3.90;;
18808;SDS011;9532;54.322;10.116;2022-11-14T02:51:45;4.27;;;3.80;;
18808;SDS011;9532;54.322;10.116;2022-11-14T02:54:12;4.80;;;4.10;;
18808;SDS011;9532;54.322;10.116;2022-11-14T02:56:41;4.67;;;3.70;;
18808;SDS011;9532;54.322;10.116;2022-11-14T02:59:08;6.07;;;3.70;;
18808;SDS011;9532;54.322;10.116;2022-11-14T03:01:36;4.87;;;4.13;;
18808;SDS011;9532;54.322;10.116;2022-11-14T03:04:03;5.53;;;3.80;;
18808;SDS011;9532;54.322;10.116;2022-11-14T03:06:30;4.47;;;4.00;;
18808;SDS011;9532;54.322;10.116;2022-11-14T03:08:58;4.87;;;4.23;;
18808;SDS011;9532;54.322;10.116;2022-11-14T03:11:25;5.20;;;3.90;;
18808;SDS011;9532;54.322;10.116;2022-11-14T03:13:54;4.70;;;4.07;;
18808;SDS011;9532;54.322;10.116;2022-11-14T03:16:21;5.40;;;4.17;;
18808;SDS011;9532;54.322;10.116;2022-11-14T03:18:49;4.67;;;4.10;;
18808;SDS011;9532;54.322;10.116;2022-11-14T03:21:17;4.73;;;4.00;;
18808;SDS011;9532;54.322;10.116;2022-11-14T03:23:45;5.50;;;4.30;;
18808;SDS011;9532;54.322;10.116;2022-11-14T03:26:13;4.70;;;3.97;;
18808;SDS011;9532;54.322;10.116;2022-11-14T03:28:41;5.17;;;3.93;;
18808;SDS011;9532;54.322;10.116;2022-11-14T03:31:11;4.83;;;4.07;;
18808;SDS011;9532;54.322;10.116;2022-11-14T03:33:39;4.70;;;4.00;;
18808;SDS011;9532;54.322;10.116;2022-11-14T03:36:06;5.60;;;4.30;;
18808;SDS011;9532;54.322;10.116;2022-11-14T03:38:34;5.47;;;3.93;;
18808;SDS011;9532;54.322;10.116;2022-11-14T03:41:02;5.00;;;3.97;;
18808;SDS011;9532;54.322;10.116;2022-11-14T03:43:29;5.50;;;3.90;;
18808;SDS011;9532;54.322;10.116;2022-11-14T03:45:58;5.17;;;4.20;;
18808;SDS011;9532;54.322;10.116;2022-11-14T03:48:28;5.40;;;4.10;;
18808;SDS011;9532;54.322;10.116;2022-11-14T03:50:56;5.40;;;4.33;;
18808;SDS011;9532;54.322;10.116;2022-11-14T03:53:24;5.20;;;4.43;;
18808;SDS011;9532;54.322;10.116;2022-11-14T03:55:52;4.67;;;4.00;;
18808;SDS011;9532;54.322;10.116;2022-11-14T03:58:20;6.03;;;4.10;;
18808;SDS011;9532;54.322;10.116;2022-11-14T04:00:47;5.07;;;4.20;;
18808;SDS011;9532;54.322;10.116;2022-11-14T04:03:14;5.03;;;4.10;;
18808;SDS011;9532;54.322;10.116;2022-11-14T04:05:43;4.97;;;4.00;;
18808;SDS011;9532;54.322;10.116;2022-11-14T04:08:11;5.17;;;4.30;;
18808;SDS011;9532;54.322;10.116;2022-11-14T04:10:38;5.30;;;4.37;;
18808;SDS011;9532;54.322;10.116;2022-11-14T04:13:06;4.90;;;4.00;;
18808;SDS011;9532;54.322;10.116;2022-11-14T04:15:34;5.03;;;4.43;;
18808;SDS011;9532;54.322;10.116;2022-11-14T04:18:01;4.90;;;4.07;;
18808;SDS011;9532;54.322;10.116;2022-11-14T04:20:28;5.07;;;4.10;;
18808;SDS011;9532;54.322;10.116;2022-11-14T04:22:57;5.10;;;4.00;;
18808;SDS011;9532;54.322;10.116;2022-11-14T04:25:24;5.10;;;4.20;;
18808;SDS011;9532;54.322;10.116;2022-11-14T04:27:52;5.63;;;4.37;;
18808;SDS011;9532;54.322;10.116;2022-11-14T04:30:19;4.60;;;4.10;;
18808;SDS011;9532;54.322;10.116;2022-11-14T04:32:46;4.40;;;3.90;;
18808;SDS011;9532;54.322;10.116;2022-11-14T04:35:13;5.00;;;3.83;;
18808;SDS011;9532;54.322;10.116;2022-11-14T04:37:41;6.20;;;4.60;;
18808;SDS011;9532;54.322;10.116;2022-11-14T04:40:10;4.73;;;3.70;;
18808;SDS011;9532;54.322;10.116;2022-11-14T04:42:38;5.43;;;4.47;;
18808;SDS011;9532;54.322;10.116;2022-11-14T04:45:06;5.70;;;4.60;;
18808;SDS011;9532;54.322;10.116;2022-11-14T04:47:34;4.83;;;4.23;;
18808;SDS011;9532;54.322;10.116;2022-11-14T04:50:01;4.47;;;3.70;;
18808;SDS011;9532;54.322;10.116;2022-11-14T04:52:28;5.70;;;4.53;;
18808;SDS011;9532;54.322;10.116;2022-11-14T04:54:56;5.47;;;4.43;;
18808;SDS011;9532;54.322;10.116;2022-11-14T04:57:25;5.37;;;4.30;;
18808;SDS011;9532;54.322;10.116;2022-11-14T04:59:52;5.00;;;4.10;;
18808;SDS011;9532;54.322;10.116;2022-11-14T05:02:19;6.07;;;4.07;;
18808;SDS011;9532;54.322;10.116;2022-11-14T05:04:47;5.20;;;4.40;;
18808;SDS011;9532;54.322;10.116;2022-11-14T05:07:14;4.57;;;4.10;;
18808;SDS011;9532;54.322;10.116;2022-11-14T05:09:41;4.70;;;4.20;;
18808;SDS011;9532;54.322;10.116;2022-11-14T05:12:08;5.13;;;4.27;;
18808;SDS011;9532;54.322;10.116;2022-11-14T05:14:37;5.57;;;4.87;;
18808;SDS011;9532;54.322;10.116;2022-11-14T05:17:05;6.27;;;4.87;;
18808;SDS011;9532;54.322;10.116;2022-11-14T05:19:32;5.03;;;4.27;;
18808;SDS011;9532;54.322;10.116;2022-11-14T05:21:59;5.70;;;4.33;;
18808;SDS011;9532;54.322;10.116;2022-11-14T05:24:26;4.87;;;4.37;;
18808;SDS011;9532;54.322;10.116;2022-11-14T05:26:53;5.67;;;4.53;;
18808;SDS011;9532;54.322;10.116;2022-11-14T05:29:20;5.50;;;4.70;;
18808;SDS011;9532;54.322;10.116;2022-11-14T05:31:49;4.80;;;4.30;;
18808;SDS011;9532;54.322;10.116;2022-11-14T05:34:16;4.53;;;4.00;;
18808;SDS011;9532;54.322;10.116;2022-11-14T05:36:44;5.20;;;4.50;;
18808;SDS011;9532;54.322;10.116;2022-11-14T05:39:11;5.17;;;4.57;;
18808;SDS011;9532;54.322;10.116;2022-11-14T05:41:38;5.43;;;4.77;;
18808;SDS011;9532;54.322;10.116;2022-11-14T05:44:05;5.40;;;4.57;;
18808;SDS011;9532;54.322;10.116;2022-11-14T05:46:33;5.50;;;4.63;;
18808;SDS011;9532;54.322;10.116;2022-11-14T05:49:02;5.63;;;4.77;;
18808;SDS011;9532;54.322;10.116;2022-11-14T05:51:29;6.67;;;4.40;;
18808;SDS011;9532;54.322;10.116;2022-11-14T05:53:56;6.33;;;5.00;;
18808;SDS011;9532;54.322;10.116;2022-11-14T05:56:23;6.27;;;5.00;;
18808;SDS011;9532;54.322;10.116;2022-11-14T05:58:50;5.80;;;4.70;;
18808;SDS011;9532;54.322;10.116;2022-11-14T06:01:18;5.50;;;4.90;;
18808;SDS011;9532;54.322;10.116;2022-11-14T06:03:46;6.07;;;4.90;;
18808;SDS011;9532;54.322;10.116;2022-11-14T06:06:16;5.37;;;4.57;;
18808;SDS011;9532;54.322;10.116;2022-11-14T06:08:46;7.67;;;5.20;;
18808;SDS011;9532;54.322;10.116;2022-11-14T06:11:14;6.90;;;5.17;;
18808;SDS011;9532;54.322;10.116;2022-11-14T06:13:42;5.40;;;4.63;;
18808;SDS011;9532;54.322;10.116;2022-11-14T06:16:11;6.70;;;5.43;;
18808;SDS011;9532;54.322;10.116;2022-11-14T06:18:39;6.93;;;5.30;;
18808;SDS011;9532;54.322;10.116;2022-11-14T06:21:08;6.40;;;5.10;;
18808;SDS011;9532;54.322;10.116;2022-11-14T06:23:39;6.80;;;5.37;;
18808;SDS011;9532;54.322;10.116;2022-11-14T06:26:18;6.40;;;5.33;;
18808;SDS011;9532;54.322;10.116;2022-11-14T06:28:47;6.17;;;5.07;;
18808;SDS011;9532;54.322;10.116;2022-11-14T06:31:15;6.10;;;4.87;;
18808;SDS011;9532;54.322;10.116;2022-11-14T06:34:03;6.63;;;5.27;;
18808;SDS011;9532;54.322;10.116;2022-11-14T06:36:31;6.80;;;5.30;;
18808;SDS011;9532;54.322;10.116;2022-11-14T06:39:00;7.37;;;5.70;;
18808;SDS011;9532;54.322;10.116;2022-11-14T06:41:27;6.80;;;5.63;;
18808;SDS011;9532;54.322;10.116;2022-11-14T06:43:56;7.10;;;5.50;;
18808;SDS011;9532;54.322;10.116;2022-11-14T06:46:23;7.53;;;5.43;;
18808;SDS011;9532;54.322;10.116;2022-11-14T06:48:50;5.87;;;5.20;;
18808;SDS011;9532;54.322;10.116;2022-11-14T06:51:17;8.40;;;5.80;;
18808;SDS011;9532;54.322;10.116;2022-11-14T06:53:45;8.53;;;5.43;;
18808;SDS011;9532;54.322;10.116;2022-11-14T06:56:14;7.20;;;5.50;;
18808;SDS011;9532;54.322;10.116;2022-11-14T06:58:42;7.33;;;5.87;;
18808;SDS011;9532;54.322;10.116;2022-11-14T07:01:11;9.50;;;5.53;;
18808;SDS011;9532;54.322;10.116;2022-11-14T07:03:40;6.50;;;5.20;;
18808;SDS011;9532;54.322;10.116;2022-11-14T07:06:08;22.43;;;10.27;;
18808;SDS011;9532;54.322;10.116;2022-11-14T07:08:36;21.00;;;13.53;;
18808;SDS011;9532;54.322;10.116;2022-11-14T07:11:04;20.97;;;14.50;;
18808;SDS011;9532;54.322;10.116;2022-11-14T07:13:34;26.10;;;14.67;;
18808;SDS011;9532;54.322;10.116;2022-11-14T07:16:02;21.07;;;14.37;;
18808;SDS011;9532;54.322;10.116;2022-11-14T07:18:31;19.60;;;13.13;;
18808;SDS011;9532;54.322;10.116;2022-11-14T07:20:59;20.80;;;12.33;;
18808;SDS011;9532;54.322;10.116;2022-11-14T07:23:27;15.67;;;11.80;;
18808;SDS011;9532;54.322;10.116;2022-11-14T07:25:58;20.33;;;11.77;;
18808;SDS011;9532;54.322;10.116;2022-11-14T07:28:28;19.87;;;11.23;;
18808;SDS011;9532;54.322;10.116;2022-11-14T07:30:57;16.57;;;11.00;;
18808;SDS011;9532;54.322;10.116;2022-11-14T07:33:24;20.43;;;11.00;;
18808;SDS011;9532;54.322;10.116;2022-11-14T07:35:52;15.10;;;10.50;;
18808;SDS011;9532;54.322;10.116;2022-11-14T07:38:19;13.97;;;9.90;;
18808;SDS011;9532;54.322;10.116;2022-11-14T07:40:51;16.73;;;10.13;;
18808;SDS011;9532;54.322;10.116;2022-11-14T07:43:20;14.47;;;8.90;;
18808;SDS011;9532;54.322;10.116;2022-11-14T07:45:47;10.83;;;7.40;;
18808;SDS011;9532;54.322;10.116;2022-11-14T07:48:16;11.03;;;7.33;;
18808;SDS011;9532;54.322;10.116;2022-11-14T07:50:46;10.83;;;7.03;;
18808;SDS011;9532;54.322;10.116;2022-11-14T07:53:13;13.23;;;7.97;;
18808;SDS011;9532;54.322;10.116;2022-11-14T07:55:42;9.30;;;6.37;;
18808;SDS011;9532;54.322;10.116;2022-11-14T07:58:09;9.77;;;6.47;;
18808;SDS011;9532;54.322;10.116;2022-11-14T08:00:37;8.70;;;6.00;;
18808;SDS011;9532;54.322;10.116;2022-11-14T08:03:05;10.97;;;6.30;;
18808;SDS011;9532;54.322;10.116;2022-11-14T08:05:34;9.27;;;5.87;;
18808;SDS011;9532;54.322;10.116;2022-11-14T08:08:01;10.17;;;5.70;;
18808;SDS011;9532;54.322;10.116;2022-11-14T08:10:28;8.10;;;5.80;;
18808;SDS011;9532;54.322;10.116;2022-11-14T08:12:56;10.30;;;5.87;;
18808;SDS011;9532;54.322;10.116;2022-11-14T08:15:24;9.87;;;5.63;;
18808;SDS011;9532;54.322;10.116;2022-11-14T08:17:52;11.17;;;6.43;;
18808;SDS011;9532;54.322;10.116;2022-11-14T08:20:23;11.73;;;5.67;;
18808;SDS011;9532;54.322;10.116;2022-11-14T08:22:54;8.20;;;4.60;;
18808;SDS011;9532;54.322;10.116;2022-11-14T08:25:28;6.63;;;4.90;;
18808;SDS011;9532;54.322;10.116;2022-11-14T08:27:55;9.07;;;4.63;;
18808;SDS011;9532;54.322;10.116;2022-11-14T08:30:22;7.60;;;4.70;;
18808;SDS011;9532;54.322;10.116;2022-11-14T08:32:50;7.57;;;4.77;;
18808;SDS011;9532;54.322;10.116;2022-11-14T08:35:19;7.47;;;4.30;;
18808;SDS011;9532;54.322;10.116;2022-11-14T08:37:47;5.53;;;4.10;;
18808;SDS011;9532;54.322;10.116;2022-11-14T08:40:17;6.77;;;3.83;;
18808;SDS011;9532;54.322;10.116;2022-11-14T08:42:44;7.43;;;3.50;;
18808;SDS011;9532;54.322;10.116;2022-11-14T08:45:11;3.97;;;3.23;;
18808;SDS011;9532;54.322;10.116;2022-11-14T08:47:38;6.20;;;3.27;;
18808;SDS011;9532;54.322;10.116;2022-11-14T08:50:06;4.37;;;3.20;;
18808;SDS011;9532;54.322;10.116;2022-11-14T08:52:33;4.13;;;2.90;;
18808;SDS011;9532;54.322;10.116;2022-11-14T08:55:01;3.20;;;2.63;;
18808;SDS011;9532;54.322;10.116;2022-11-14T08:57:29;4.83;;;2.77;;
18808;SDS011;9532;54.322;10.116;2022-11-14T08:59:57;5.27;;;2.60;;
18808;SDS011;9532;54.322;10.116;2022-11-14T09:02:24;3.10;;;2.23;;
18808;SDS011;9532;54.322;10.116;2022-11-14T09:04:51;4.73;;;2.33;;
18808;SDS011;9532;54.322;10.116;2022-11-14T09:07:18;3.73;;;2.60;;
18808;SDS011;9532;54.322;10.116;2022-11-14T09:09:45;3.53;;;2.20;;
18808;SDS011;9532;54.322;10.116;2022-11-14T09:12:13;4.20;;;2.40;;
18808;SDS011;9532;54.322;10.116;2022-11-14T09:14:42;5.13;;;2.20;;
18808;SDS011;9532;54.322;10.116;2022-11-14T09:17:10;2.67;;;1.80;;
18808;SDS011;9532;54.322;10.116;2022-11-14T09:19:37;3.30;;;1.87;;
18808;SDS011;9532;54.322;10.116;2022-11-14T09:22:04;3.70;;;2.43;;
18808;SDS011;9532;54.322;10.116;2022-11-14T09:24:32;2.93;;;1.70;;
18808;SDS011;9532;54.322;10.116;2022-11-14T09:26:59;3.17;;;1.70;;
18808;SDS011;9532;54.322;10.116;2022-11-14T09:29:26;3.70;;;1.93;;
18808;SDS011;9532;54.322;10.116;2022-11-14T09:31:55;2.60;;;1.63;;
18808;SDS011;9532;54.322;10.116;2022-11-14T09:34:23;2.23;;;1.70;;
18808;SDS011;9532;54.322;10.116;2022-11-14T09:36:50;2.17;;;1.90;;
18808;SDS011;9532;54.322;10.116;2022-11-14T09:39:17;3.57;;;1.90;;
18808;SDS011;9532;54.322;10.116;2022-11-14T09:41:48;3.13;;;2.47;;
18808;SDS011;9532;54.322;10.116;2022-11-14T09:44:42;5.13;;;4.00;;
18808;SDS011;9532;54.322;10.116;2022-11-14T09:47:23;6.70;;;3.47;;
18808;SDS011;9532;54.322;10.116;2022-11-14T09:49:55;8.33;;;3.90;;
18808;SDS011;9532;54.322;10.116;2022-11-14T09:52:30;6.70;;;3.47;;
18808;SDS011;9532;54.322;10.116;2022-11-14T09:55:03;5.33;;;2.87;;
18808;SDS011;9532;54.322;10.116;2022-11-14T09:57:37;8.07;;;3.60;;
18808;SDS011;9532;54.322;10.116;2022-11-14T10:00:13;5.27;;;3.23;;
18808;SDS011;9532;54.322;10.116;2022-11-14T10:02:48;6.97;;;3.03;;
18808;SDS011;9532;54.322;10.116;2022-11-14T10:05:44;11.93;;;3.63;;
18808;SDS011;9532;54.322;10.116;2022-11-14T10:11:15;8.13;;;4.63;;
18808;SDS011;9532;54.322;10.116;2022-11-14T10:13:52;11.57;;;4.53;;
18808;SDS011;9532;54.322;10.116;2022-11-14T10:16:39;10.10;;;4.47;;
18808;SDS011;9532;54.322;10.116;2022-11-14T10:19:16;9.37;;;4.90;;
18808;SDS011;9532;54.322;10.116;2022-11-14T10:21:54;11.40;;;5.07;;
18808;SDS011;9532;54.322;10.116;2022-11-14T10:24:53;16.33;;;6.10;;
18808;SDS011;9532;54.322;10.116;2022-11-14T10:27:42;13.97;;;6.53;;
18808;SDS011;9532;54.322;10.116;2022-11-14T10:30:20;14.87;;;7.00;;
18808;SDS011;9532;54.322;10.116;2022-11-14T10:35:47;21.77;;;7.30;;
18808;SDS011;9532;54.322;10.116;2022-11-14T10:38:21;17.87;;;7.43;;
18808;SDS011;9532;54.322;10.116;2022-11-14T10:40:55;22.83;;;8.63;;
18808;SDS011;9532;54.322;10.116;2022-11-14T10:43:27;17.30;;;8.47;;
18808;SDS011;9532;54.322;10.116;2022-11-14T10:46:02;16.97;;;8.70;;
18808;SDS011;9532;54.322;10.116;2022-11-14T10:48:34;18.27;;;7.73;;
18808;SDS011;9532;54.322;10.116;2022-11-14T10:51:07;20.60;;;7.73;;
18808;SDS011;9532;54.322;10.116;2022-11-14T10:53:42;17.33;;;8.50;;
18808;SDS011;9532;54.322;10.116;2022-11-14T10:56:17;15.13;;;7.40;;
18808;SDS011;9532;54.322;10.116;2022-11-14T10:58:44;18.80;;;7.83;;
18808;SDS011;9532;54.322;10.116;2022-11-14T11:01:30;16.00;;;7.77;;
18808;SDS011;9532;54.322;10.116;2022-11-14T11:04:10;16.33;;;6.63;;
18808;SDS011;9532;54.322;10.116;2022-11-14T11:06:40;12.43;;;5.87;;
18808;SDS011;9532;54.322;10.116;2022-11-14T11:09:08;11.70;;;5.67;;
18808;SDS011;9532;54.322;10.116;2022-11-14T11:11:57;10.50;;;4.97;;
18808;SDS011;9532;54.322;10.116;2022-11-14T11:14:26;10.70;;;4.33;;
18808;SDS011;9532;54.322;10.116;2022-11-14T11:17:06;8.63;;;4.23;;
18808;SDS011;9532;54.322;10.116;2022-11-14T11:19:40;9.40;;;4.17;;
18808;SDS011;9532;54.322;10.116;2022-11-14T11:22:24;9.07;;;3.57;;
18808;SDS011;9532;54.322;10.116;2022-11-14T11:24:53;7.73;;;3.27;;
18808;SDS011;9532;54.322;10.116;2022-11-14T11:27:22;7.00;;;3.90;;
18808;SDS011;9532;54.322;10.116;2022-11-14T11:30:04;7.30;;;3.47;;
18808;SDS011;9532;54.322;10.116;2022-11-14T11:32:34;8.07;;;3.60;;
18808;SDS011;9532;54.322;10.116;2022-11-14T11:35:01;3.83;;;2.60;;
18808;SDS011;9532;54.322;10.116;2022-11-14T11:37:40;7.10;;;3.20;;
18808;SDS011;9532;54.322;10.116;2022-11-14T11:40:12;5.67;;;3.10;;
18808;SDS011;9532;54.322;10.116;2022-11-14T11:42:44;7.53;;;3.60;;
18808;SDS011;9532;54.322;10.116;2022-11-14T11:45:16;25.80;;;10.70;;
18808;SDS011;9532;54.322;10.116;2022-11-14T11:47:47;105.63;;;43.87;;
18808;SDS011;9532;54.322;10.116;2022-11-14T11:50:20;65.33;;;30.13;;
18808;SDS011;9532;54.322;10.116;2022-11-14T11:52:50;89.03;;;36.70;;
18808;SDS011;9532;54.322;10.116;2022-11-14T11:55:28;80.30;;;33.07;;
18808;SDS011;9532;54.322;10.116;2022-11-14T11:58:00;60.97;;;27.63;;
18808;SDS011;9532;54.322;10.116;2022-11-14T12:00:30;68.23;;;27.37;;
18808;SDS011;9532;54.322;10.116;2022-11-14T12:02:58;60.77;;;25.07;;
18808;SDS011;9532;54.322;10.116;2022-11-14T12:05:29;66.50;;;24.90;;
18808;SDS011;9532;54.322;10.116;2022-11-14T12:08:03;57.30;;;22.83;;
18808;SDS011;9532;54.322;10.116;2022-11-14T12:10:36;45.17;;;19.40;;
18808;SDS011;9532;54.322;10.116;2022-11-14T12:13:20;51.13;;;20.03;;
18808;SDS011;9532;54.322;10.116;2022-11-14T12:16:10;44.47;;;18.77;;
18808;SDS011;9532;54.322;10.116;2022-11-14T12:22:00;35.53;;;15.03;;
18808;SDS011;9532;54.322;10.116;2022-11-14T12:25:00;32.33;;;14.43;;
18808;SDS011;9532;54.322;10.116;2022-11-14T12:27:59;28.23;;;13.20;;
18808;SDS011;9532;54.322;10.116;2022-11-14T12:30:40;29.03;;;13.13;;
18808;SDS011;9532;54.322;10.116;2022-11-14T12:33:15;27.67;;;12.27;;
18808;SDS011;9532;54.322;10.116;2022-11-14T12:35:49;27.27;;;10.87;;
18808;SDS011;9532;54.322;10.116;2022-11-14T12:38:19;32.40;;;20.13;;
18808;SDS011;9532;54.322;10.116;2022-11-14T12:40:50;37.00;;;20.77;;
18808;SDS011;9532;54.322;10.116;2022-11-14T12:43:25;25.80;;;15.83;;
18808;SDS011;9532;54.322;10.116;2022-11-14T12:46:00;22.60;;;13.57;;
18808;SDS011;9532;54.322;10.116;2022-11-14T12:48:34;23.57;;;11.90;;
18808;SDS011;9532;54.322;10.116;2022-11-14T12:51:04;17.23;;;10.17;;
18808;SDS011;9532;54.322;10.116;2022-11-14T12:53:53;14.83;;;9.00;;
18808;SDS011;9532;54.322;10.116;2022-11-14T12:59:39;17.17;;;9.33;;
18808;SDS011;9532;54.322;10.116;2022-11-14T13:02:21;14.87;;;8.37;;
18808;SDS011;9532;54.322;10.116;2022-11-14T13:05:10;12.77;;;7.50;;
18808;SDS011;9532;54.322;10.116;2022-11-14T13:07:47;11.53;;;6.50;;
18808;SDS011;9532;54.322;10.116;2022-11-14T13:10:23;12.20;;;5.77;;
18808;SDS011;9532;54.322;10.116;2022-11-14T13:12:56;10.40;;;4.83;;
18808;SDS011;9532;54.322;10.116;2022-11-14T13:15:47;7.20;;;4.17;;
18808;SDS011;9532;54.322;10.116;2022-11-14T13:18:35;7.47;;;4.30;;
18808;SDS011;9532;54.322;10.116;2022-11-14T13:21:34;8.17;;;4.40;;
18808;SDS011;9532;54.322;10.116;2022-11-14T13:24:13;11.83;;;6.40;;
18808;SDS011;9532;54.322;10.116;2022-11-14T13:26:43;12.23;;;6.77;;
18808;SDS011;9532;54.322;10.116;2022-11-14T13:35:22;16.03;;;6.30;;
18808;SDS011;9532;54.322;10.116;2022-11-14T13:38:16;10.53;;;5.27;;
18808;SDS011;9532;54.322;10.116;2022-11-14T13:41:21;10.67;;;5.20;;
18808;SDS011;9532;54.322;10.116;2022-11-14T13:44:08;9.37;;;5.20;;
18808;SDS011;9532;54.322;10.116;2022-11-14T13:46:56;9.07;;;4.50;;
18808;SDS011;9532;54.322;10.116;2022-11-14T13:49:38;8.57;;;5.00;;
18808;SDS011;9532;54.322;10.116;2022-11-14T13:52:18;8.93;;;4.70;;
18808;SDS011;9532;54.322;10.116;2022-11-14T13:54:46;8.27;;;4.40;;
18808;SDS011;9532;54.322;10.116;2022-11-14T13:57:16;6.27;;;4.17;;
18808;SDS011;9532;54.322;10.116;2022-11-14T13:59:54;7.77;;;4.60;;
18808;SDS011;9532;54.322;10.116;2022-11-14T14:02:35;7.43;;;3.93;;
18808;SDS011;9532;54.322;10.116;2022-11-14T14:05:23;8.70;;;4.73;;
18808;SDS011;9532;54.322;10.116;2022-11-14T14:07:59;9.60;;;4.43;;
18808;SDS011;9532;54.322;10.116;2022-11-14T14:10:40;7.30;;;4.73;;
18808;SDS011;9532;54.322;10.116;2022-11-14T14:13:19;8.80;;;5.10;;
18808;SDS011;9532;54.322;10.116;2022-11-14T14:16:00;9.43;;;4.93;;
18808;SDS011;9532;54.322;10.116;2022-11-14T14:18:36;9.93;;;5.43;;
18808;SDS011;9532;54.322;10.116;2022-11-14T14:21:15;10.23;;;5.30;;
18808;SDS011;9532;54.322;10.116;2022-11-14T14:23:55;10.67;;;4.60;;
18808;SDS011;9532;54.322;10.116;2022-11-14T14:26:32;10.57;;;4.50;;
18808;SDS011;9532;54.322;10.116;2022-11-14T14:29:11;8.53;;;4.60;;
18808;SDS011;9532;54.322;10.116;2022-11-14T14:31:45;14.27;;;4.50;;
18808;SDS011;9532;54.322;10.116;2022-11-14T14:34:22;6.77;;;4.17;;
18808;SDS011;9532;54.322;10.116;2022-11-14T14:36:55;7.87;;;4.60;;
18808;SDS011;9532;54.322;10.116;2022-11-14T14:39:23;13.33;;;4.67;;
18808;SDS011;9532;54.322;10.116;2022-11-14T14:41:53;6.97;;;3.83;;
18808;SDS011;9532;54.322;10.116;2022-11-14T14:44:24;9.87;;;4.50;;
18808;SDS011;9532;54.322;10.116;2022-11-14T14:46:52;14.10;;;5.77;;
18808;SDS011;9532;54.322;10.116;2022-11-14T14:49:21;11.13;;;5.40;;
18808;SDS011;9532;54.322;10.116;2022-11-14T14:51:51;11.60;;;4.93;;
18808;SDS011;9532;54.322;10.116;2022-11-14T14:54:22;11.47;;;5.57;;
18808;SDS011;9532;54.322;10.116;2022-11-14T14:56:54;11.30;;;5.40;;
18808;SDS011;9532;54.322;10.116;2022-11-14T14:59:24;16.33;;;5.67;;
18808;SDS011;9532;54.322;10.116;2022-11-14T15:01:53;11.77;;;5.10;;
18808;SDS011;9532;54.322;10.116;2022-11-14T15:04:22;25.33;;;5.70;;
18808;SDS011;9532;54.322;10.116;2022-11-14T15:06:51;10.13;;;4.60;;
18808;SDS011;9532;54.322;10.116;2022-11-14T15:09:23;9.93;;;4.90;;
18808;SDS011;9532;54.322;10.116;2022-11-14T15:11:54;12.50;;;5.43;;
18808;SDS011;9532;54.322;10.116;2022-11-14T15:14:23;9.83;;;5.33;;
18808;SDS011;9532;54.322;10.116;2022-11-14T15:16:53;7.73;;;4.57;;
18808;SDS011;9532;54.322;10.116;2022-11-14T15:19:22;11.23;;;4.83;;
18808;SDS011;9532;54.322;10.116;2022-11-14T15:22:00;7.83;;;4.47;;
18808;SDS011;9532;54.322;10.116;2022-11-14T15:24:31;9.03;;;4.43;;